Time;durP1;ratioP1;P1;durP2;ratioP2;P2;SDS_P1;SDS_P2;PMS_P1;PMS_P2;Temp;Humidity;BMP_temperature;BMP_pressure;BME280_temperature;BME280_humidity;BME280_pressure;Samples;Min_cycle;Max_cycle;Signal;HPM_P1;HPM_P2
2022/07/07 00:00:47;;;;;;;0.50;0.20;;;22.80;53.60;;;;;;6172733;28;20023;-68
2022/07/07 00:03:48;;;;;;;0.30;0.20;;;22.80;53.70;;;;;;6172735;28;20435;-69
2022/07/07 00:06:48;;;;;;;0.40;0.38;;;22.80;53.70;;;;;;6173024;28;20019;-66
2022/07/07 00:09:49;;;;;;;0.38;0.30;;;22.80;53.70;;;;;;6171830;28;20034;-66
2022/07/07 00:12:50;;;;;;;0.20;0.20;;;22.80;53.70;;;;;;6172791;28;20030;-66
2022/07/07 00:15:51;;;;;;;0.55;0.30;;;22.80;53.70;;;;;;6172937;28;20034;-66
2022/07/07 00:18:51;;;;;;;0.20;0.20;;;22.80;53.70;;;;;;6171641;28;20027;-66
2022/07/07 00:21:53;;;;;;;0.52;0.32;;;22.80;53.70;;;;;;6170900;28;20320;-67
2022/07/07 00:24:53;;;;;;;0.30;0.30;;;22.80;53.70;;;;;;6171364;28;20101;-69
2022/07/07 00:27:54;;;;;;;0.20;0.20;;;22.80;53.70;;;;;;6170653;28;20026;-69
2022/07/07 00:30:54;;;;;;;0.40;0.30;;;22.80;53.70;;;;;;6171537;28;20019;-68
2022/07/07 00:33:55;;;;;;;0.25;0.22;;;22.80;53.70;;;;;;6171313;28;20110;-68
2022/07/07 00:36:56;;;;;;;0.68;0.30;;;22.80;53.70;;;;;;6172468;28;20023;-68
2022/07/07 00:39:56;;;;;;;0.35;0.30;;;22.80;53.70;;;;;;6172129;28;20029;-68
2022/07/07 00:42:57;;;;;;;0.45;0.30;;;22.80;54.40;;;;;;6171593;28;20027;-68
2022/07/07 00:45:58;;;;;;;0.30;0.30;;;22.80;53.70;;;;;;6172141;28;20023;-68
2022/07/07 00:48:59;;;;;;;0.20;0.20;;;22.80;53.80;;;;;;6171243;28;20138;-69
2022/07/07 00:51:59;;;;;;;0.20;0.20;;;22.80;53.70;;;;;;6171975;28;20035;-69
2022/07/07 00:55:02;;;;;;;0.63;0.40;;;22.80;53.70;;;;;;6169150;28;20025;-68
2022/07/07 00:58:02;;;;;;;0.20;0.20;;;22.80;53.70;;;;;;6170767;28;20027;-68
2022/07/07 01:01:03;;;;;;;0.40;0.20;;;22.80;53.80;;;;;;6169759;28;20022;-68
2022/07/07 01:04:09;;;;;;;0.20;0.20;;;22.80;53.70;;;;;;6169993;28;20031;-68
2022/07/07 01:07:10;;;;;;;0.20;0.20;;;22.80;53.70;;;;;;6170198;28;20027;-68
2022/07/07 01:10:10;;;;;;;0.30;0.20;;;22.80;53.70;;;;;;6171272;28;20120;-68
2022/07/07 01:13:12;;;;;;;0.30;0.20;;;22.80;53.70;;;;;;6170928;28;20039;-68
2022/07/07 01:16:12;;;;;;;0.20;0.20;;;22.80;53.70;;;;;;6171455;28;20035;-66
2022/07/07 01:19:13;;;;;;;0.20;0.20;;;22.80;53.70;;;;;;6170689;28;20034;-68
2022/07/07 01:22:16;;;;;;;0.28;0.28;;;22.80;53.70;;;;;;6171231;28;20023;-68
2022/07/07 01:25:16;;;;;;;0.20;0.20;;;22.80;53.70;;;;;;6156479;28;20038;-68
2022/07/07 01:28:17;;;;;;;0.28;0.20;;;22.80;53.70;;;;;;6170484;28;20030;-68
2022/07/07 01:31:18;;;;;;;0.20;0.20;;;22.80;53.80;;;;;;6169280;28;20038;-69
2022/07/07 01:34:18;;;;;;;0.30;0.30;;;22.80;53.80;;;;;;6169495;28;20043;-69
2022/07/07 01:37:24;;;;;;;0.55;0.40;;;22.80;53.80;;;;;;6169850;28;20603;-69
2022/07/07 01:40:25;;;;;;;0.30;0.30;;;22.80;53.80;;;;;;6170134;28;20054;-68
2022/07/07 01:43:26;;;;;;;0.15;0.15;;;22.80;53.80;;;;;;6171137;28;20114;-68
2022/07/07 01:46:26;;;;;;;0.20;0.20;;;22.80;53.80;;;;;;6170860;28;20069;-68
2022/07/07 01:49:29;;;;;;;0.47;0.35;;;22.80;53.80;;;;;;6170094;28;20112;-68
2022/07/07 01:52:29;;;;;;;0.30;0.30;;;22.80;53.80;;;;;;6170039;28;20031;-68
2022/07/07 01:55:30;;;;;;;0.25;0.25;;;22.80;54.40;;;;;;6169371;28;20389;-69
2022/07/07 01:58:31;;;;;;;0.25;0.25;;;22.80;53.80;;;;;;6169269;28;20027;-69
2022/07/07 02:01:31;;;;;;;0.40;0.30;;;22.80;53.80;;;;;;6169391;28;20418;-69
2022/07/07 02:04:33;;;;;;;0.32;0.20;;;22.80;53.80;;;;;;6169189;28;20039;-69
2022/07/07 02:07:37;;;;;;;0.30;0.20;;;22.80;53.80;;;;;;6173068;28;20036;-69
2022/07/07 02:13:57;;;;;;;0.22;0.20;;;22.80;53.80;;;;;;6173601;28;20493;-69
2022/07/07 02:16:57;;;;;;;0.38;0.38;;;22.80;53.80;;;;;;6174216;28;20115;-68
2022/07/07 02:19:58;;;;;;;0.30;0.30;;;22.80;53.80;;;;;;6175456;28;20114;-69
2022/07/07 02:22:58;;;;;;;0.30;0.30;;;22.80;53.80;;;;;;6175336;28;20066;-68
2022/07/07 02:26:00;;;;;;;0.35;0.32;;;22.80;53.90;;;;;;6174904;28;20110;-69
2022/07/07 02:29:01;;;;;;;0.40;0.30;;;22.80;53.80;;;;;;6175282;28;20027;-69
2022/07/07 02:32:02;;;;;;;0.25;0.20;;;22.80;53.80;;;;;;6174184;28;20026;-69
2022/07/07 02:35:03;;;;;;;0.52;0.30;;;22.80;53.80;;;;;;6173261;28;20062;-68
2022/07/07 02:38:04;;;;;;;0.30;0.30;;;22.80;53.80;;;;;;6173571;28;20031;-68
2022/07/07 02:41:06;;;;;;;0.13;0.13;;;22.80;53.80;;;;;;6173465;28;20030;-68
2022/07/07 02:44:06;;;;;;;0.30;0.30;;;22.80;53.90;;;;;;6173230;28;20046;-69
2022/07/07 02:47:07;;;;;;;0.20;0.20;;;22.80;53.90;;;;;;6173746;28;20023;-69
2022/07/07 02:50:09;;;;;;;0.43;0.30;;;22.80;53.80;;;;;;6173636;28;20047;-68
2022/07/07 02:53:11;;;;;;;0.57;0.30;;;22.80;53.90;;;;;;6174669;28;20030;-66
2022/07/07 02:56:11;;;;;;;0.30;0.30;;;22.70;53.80;;;;;;6173089;28;20385;-68
2022/07/07 02:59:12;;;;;;;0.20;0.20;;;22.80;53.90;;;;;;6173010;28;20332;-69
2022/07/07 03:02:12;;;;;;;0.20;0.20;;;22.80;53.90;;;;;;6174554;28;20023;-68
2022/07/07 03:05:13;;;;;;;0.30;0.20;;;22.80;53.90;;;;;;6174522;28;20053;-68
2022/07/07 03:08:14;;;;;;;0.22;0.20;;;22.80;53.90;;;;;;6174218;28;20027;-69
2022/07/07 03:11:14;;;;;;;0.30;0.25;;;22.80;53.90;;;;;;6174509;28;20097;-68
2022/07/07 03:14:15;;;;;;;0.30;0.30;;;22.80;53.90;;;;;;6174235;28;20122;-68
2022/07/07 03:17:16;;;;;;;0.28;0.28;;;22.70;53.80;;;;;;6173624;28;20027;-68
2022/07/07 03:20:18;;;;;;;0.63;0.40;;;22.80;53.90;;;;;;6174249;28;20384;-68
2022/07/07 03:23:18;;;;;;;1.17;0.30;;;22.80;53.90;;;;;;6174162;28;20039;-68
2022/07/07 03:26:19;;;;;;;0.30;0.30;;;22.80;53.90;;;;;;6170114;28;20085;-68
2022/07/07 03:29:20;;;;;;;0.25;0.20;;;22.80;53.90;;;;;;6172000;28;20460;-66
2022/07/07 03:32:20;;;;;;;0.20;0.20;;;22.70;53.80;;;;;;6172090;28;20019;-68
2022/07/07 03:35:21;;;;;;;0.32;0.30;;;22.70;53.90;;;;;;6172851;28;20034;-69
2022/07/07 03:38:21;;;;;;;0.52;0.30;;;22.80;53.90;;;;;;6173502;28;20542;-68
2022/07/07 03:41:22;;;;;;;0.30;0.30;;;22.80;53.90;;;;;;6173480;28;20106;-69
2022/07/07 03:44:23;;;;;;;0.35;0.30;;;22.80;53.90;;;;;;6173177;28;20035;-68
2022/07/07 03:47:23;;;;;;;0.20;0.20;;;22.70;53.90;;;;;;6173426;28;20363;-68
2022/07/07 03:50:24;;;;;;;0.40;0.30;;;22.70;53.90;;;;;;6171952;28;20055;-68
2022/07/07 03:53:25;;;;;;;0.40;0.30;;;22.80;53.90;;;;;;6171802;28;20066;-68
2022/07/07 03:56:25;;;;;;;0.30;0.30;;;22.80;53.90;;;;;;6171418;28;20173;-69
2022/07/07 03:59:26;;;;;;;0.35;0.35;;;22.70;53.90;;;;;;6172505;28;20031;-68
2022/07/07 04:02:27;;;;;;;0.25;0.25;;;22.80;53.90;;;;;;6173150;28;20654;-68
2022/07/07 04:05:27;;;;;;;0.50;0.40;;;22.70;53.90;;;;;;6173048;28;20026;-68
2022/07/07 04:08:28;;;;;;;0.30;0.30;;;22.80;53.90;;;;;;6172706;28;20018;-69
2022/07/07 04:11:29;;;;;;;1.38;0.43;;;22.70;53.90;;;;;;6172690;28;20039;-69
2022/07/07 04:14:29;;;;;;;1.08;0.50;;;22.70;53.90;;;;;;6172848;28;20033;-68
2022/07/07 04:17:30;;;;;;;0.32;0.28;;;22.70;53.90;;;;;;6172892;28;20031;-69
2022/07/07 04:20:31;;;;;;;0.30;0.25;;;22.70;53.90;;;;;;6171251;28;20045;-66
2022/07/07 04:23:32;;;;;;;0.70;0.47;;;22.70;53.90;;;;;;6171136;28;20043;-69
2022/07/07 04:26:33;;;;;;;0.30;0.30;;;22.80;54.00;;;;;;6158233;28;20050;-69
2022/07/07 04:29:33;;;;;;;0.57;0.47;;;22.70;53.90;;;;;;6171661;28;20654;-69
2022/07/07 04:32:34;;;;;;;0.30;0.30;;;22.80;54.00;;;;;;6171050;28;20034;-68
2022/07/07 04:35:34;;;;;;;0.30;0.30;;;22.80;54.00;;;;;;6170547;28;20486;-68
2022/07/07 04:38:35;;;;;;;0.63;0.40;;;22.70;53.90;;;;;;6170426;28;20033;-66
2022/07/07 04:41:36;;;;;;;0.38;0.30;;;22.70;53.90;;;;;;6171686;28;20422;-68
2022/07/07 04:44:36;;;;;;;0.40;0.40;;;22.70;53.90;;;;;;6172572;28;20062;-69
2022/07/07 04:47:41;;;;;;;0.40;0.40;;;22.70;53.90;;;;;;6170353;28;20617;-68
2022/07/07 04:50:42;;;;;;;0.82;0.40;;;22.70;54.00;;;;;;6170336;28;20034;-68
2022/07/07 04:53:42;;;;;;;1.13;0.50;;;22.70;54.00;;;;;;6170499;28;20363;-69
2022/07/07 04:56:43;;;;;;;0.60;0.50;;;22.70;54.00;;;;;;6170141;28;20031;-68
2022/07/07 05:03:41;;;;;;;0.85;0.60;;;22.80;54.10;;;;;;6171441;28;20058;-69
2022/07/07 05:06:41;;;;;;;0.43;0.30;;;22.70;54.00;;;;;;6170839;28;20081;-66
2022/07/07 05:09:42;;;;;;;0.47;0.38;;;22.70;54.00;;;;;;6169584;28;20026;-66
2022/07/07 05:12:42;;;;;;;0.70;0.40;;;22.70;54.00;;;;;;6171501;28;20499;-67
2022/07/07 05:15:43;;;;;;;0.52;0.43;;;22.70;54.00;;;;;;6170767;28;20046;-67
2022/07/07 05:18:44;;;;;;;0.50;0.40;;;22.70;54.00;;;;;;6170416;28;20082;-66
2022/07/07 05:21:44;;;;;;;0.60;0.30;;;22.70;54.00;;;;;;6157479;28;20045;-68
2022/07/07 05:24:45;;;;;;;0.55;0.40;;;22.70;54.00;;;;;;6162609;28;20031;-68
2022/07/07 05:27:48;;;;;;;0.52;0.43;;;22.70;54.00;;;;;;6167392;28;20512;-69
2022/07/07 05:30:48;;;;;;;0.60;0.50;;;22.80;54.20;;;;;;6167802;28;20037;-67
2022/07/07 05:33:49;;;;;;;0.50;0.47;;;22.80;54.20;;;;;;6168029;28;20027;-68
2022/07/07 05:36:50;;;;;;;0.50;0.40;;;22.80;54.00;;;;;;6167511;28;20149;-68
2022/07/07 05:39:51;;;;;;;0.93;0.60;;;22.80;53.90;;;;;;6167595;28;20077;-68
2022/07/07 05:42:51;;;;;;;0.85;0.50;;;22.80;53.90;;;;;;6168123;28;20038;-69
2022/07/07 05:45:52;;;;;;;0.45;0.30;;;22.90;54.00;;;;;;6168242;28;20022;-67
2022/07/07 05:48:53;;;;;;;1.42;0.55;;;22.90;54.30;;;;;;6168879;28;20059;-66
2022/07/07 05:51:55;;;;;;;1.48;0.50;;;22.90;54.60;;;;;;6167403;28;20386;-68
2022/07/07 05:54:56;;;;;;;1.70;0.65;;;22.90;54.50;;;;;;6156960;28;20027;-68
2022/07/07 05:57:58;;;;;;;1.95;0.60;;;22.90;54.70;;;;;;6168401;28;20062;-69
2022/07/07 06:00:58;;;;;;;0.98;0.60;;;22.90;54.70;;;;;;6168934;28;20105;-69
2022/07/07 06:03:59;;;;;;;2.70;0.75;;;22.90;54.60;;;;;;6165827;28;20039;-69
2022/07/07 06:06:59;;;;;;;1.85;0.63;;;22.90;54.70;;;;;;6170390;28;20027;-68
2022/07/07 06:10:00;;;;;;;0.65;0.50;;;22.80;54.60;;;;;;6171066;28;20026;-68
2022/07/07 06:13:01;;;;;;;5.78;0.70;;;22.80;54.60;;;;;;6160589;28;20065;-69
2022/07/07 06:16:02;;;;;;;6.45;1.10;;;22.80;54.60;;;;;;6165063;28;20028;-69
2022/07/07 06:19:02;;;;;;;2.75;0.60;;;22.80;54.50;;;;;;6147714;29;20054;-68
2022/07/07 06:22:03;;;;;;;1.67;0.73;;;22.80;54.40;;;;;;6163116;28;20057;-69
2022/07/07 06:25:04;;;;;;;1.95;0.73;;;22.80;54.40;;;;;;6172454;28;20019;-68
2022/07/07 06:28:05;;;;;;;1.05;0.73;;;22.80;54.40;;;;;;6172365;28;20030;-67
2022/07/07 06:31:06;;;;;;;1.85;0.88;;;22.80;54.40;;;;;;6172169;28;20023;-69
2022/07/07 06:34:06;;;;;;;1.00;0.60;;;22.80;54.50;;;;;;6172848;28;20023;-68
2022/07/07 06:37:07;;;;;;;3.08;0.70;;;22.80;54.50;;;;;;6172252;28;20058;-68
2022/07/07 06:40:09;;;;;;;1.23;0.63;;;22.80;54.40;;;;;;6173155;28;20023;-67
2022/07/07 06:43:09;;;;;;;3.08;0.80;;;22.80;54.40;;;;;;6171738;28;20065;-68
2022/07/07 06:46:10;;;;;;;2.22;0.70;;;22.80;54.40;;;;;;6172269;28;20051;-68
2022/07/07 06:49:12;;;;;;;2.42;0.75;;;22.80;54.40;;;;;;6172460;28;20110;-69
2022/07/07 06:52:13;;;;;;;1.23;0.50;;;22.80;54.50;;;;;;6173518;28;20486;-69
2022/07/07 06:55:14;;;;;;;1.27;0.75;;;22.80;54.40;;;;;;6176670;28;20027;-69
2022/07/07 06:58:14;;;;;;;1.08;0.70;;;22.80;54.50;;;;;;6176829;28;20390;-69
2022/07/07 07:01:15;;;;;;;1.08;0.70;;;22.80;54.40;;;;;;6176292;28;20022;-68
2022/07/07 07:04:16;;;;;;;6.30;0.60;;;22.80;54.40;;;;;;6176829;28;20531;-68
2022/07/07 07:07:18;;;;;;;0.98;0.60;;;22.80;54.40;;;;;;6176475;28;20041;-68
2022/07/07 07:10:18;;;;;;;2.15;0.85;;;22.80;54.40;;;;;;6177273;28;20030;-69
2022/07/07 07:13:19;;;;;;;1.10;0.80;;;22.80;54.50;;;;;;6176410;28;20027;-69
2022/07/07 07:16:20;;;;;;;1.10;0.60;;;22.80;54.40;;;;;;6176765;28;20054;-68
2022/07/07 07:19:20;;;;;;;1.42;0.80;;;22.80;54.40;;;;;;6176704;28;20023;-68
2022/07/07 07:22:21;;;;;;;1.20;0.60;;;22.80;54.50;;;;;;6176317;28;20039;-69
2022/07/07 07:25:22;;;;;;;1.70;0.80;;;22.80;54.40;;;;;;6175564;28;20433;-68
2022/07/07 07:28:22;;;;;;;0.70;0.60;;;22.80;54.50;;;;;;6176066;28;20022;-68
2022/07/07 07:31:23;;;;;;;1.42;1.00;;;22.80;54.40;;;;;;6175947;28;20023;-67
2022/07/07 07:34:24;;;;;;;1.35;0.77;;;22.80;54.50;;;;;;6176515;28;20026;-67
2022/07/07 07:37:24;;;;;;;1.42;0.75;;;22.70;54.40;;;;;;6175317;28;20126;-69
2022/07/07 07:40:25;;;;;;;0.85;0.40;;;22.80;54.50;;;;;;6175857;28;20073;-69
2022/07/07 07:43:26;;;;;;;0.80;0.60;;;22.80;54.40;;;;;;6175552;28;20034;-68
2022/07/07 07:46:27;;;;;;;0.65;0.52;;;22.80;54.40;;;;;;6176166;28;20023;-69
2022/07/07 07:49:27;;;;;;;1.85;0.80;;;22.80;54.40;;;;;;6175410;28;20055;-69
2022/07/07 07:52:28;;;;;;;1.98;0.70;;;22.80;54.40;;;;;;6175478;28;20529;-68
2022/07/07 07:55:30;;;;;;;0.68;0.60;;;22.80;54.40;;;;;;6175295;28;20169;-69
2022/07/07 07:58:31;;;;;;;2.13;0.70;;;22.80;54.50;;;;;;6175161;28;20026;-69
2022/07/07 08:01:32;;;;;;;0.88;0.65;;;22.80;54.50;;;;;;6175680;28;20098;-69
2022/07/07 08:04:32;;;;;;;0.75;0.60;;;22.80;54.50;;;;;;6174657;28;20050;-69
2022/07/07 08:07:33;;;;;;;1.02;0.73;;;22.80;54.50;;;;;;6175360;28;20049;-69
2022/07/07 08:10:34;;;;;;;0.60;0.43;;;22.80;54.50;;;;;;6175423;28;20026;-68
2022/07/07 08:13:34;;;;;;;1.02;0.70;;;22.80;54.50;;;;;;6174904;28;20034;-69
2022/07/07 08:16:35;;;;;;;1.52;0.68;;;22.80;54.50;;;;;;6174799;28;20034;-69
2022/07/07 08:19:36;;;;;;;1.00;0.50;;;22.80;54.50;;;;;;6174268;28;20098;-69
2022/07/07 08:22:37;;;;;;;0.90;0.60;;;22.80;54.50;;;;;;6174690;28;20035;-68
2022/07/07 08:25:37;;;;;;;0.98;0.60;;;22.80;54.50;;;;;;6174968;28;20405;-69
2022/07/07 08:28:40;;;;;;;1.08;0.55;;;22.80;54.50;;;;;;6181376;28;20015;-68
2022/07/07 08:31:40;;;;;;;1.23;0.70;;;22.80;54.40;;;;;;6164248;28;20109;-69
2022/07/07 08:34:43;;;;;;;0.52;0.52;;;22.80;54.40;;;;;;6174259;28;20019;-69
2022/07/07 08:37:43;;;;;;;1.50;0.70;;;22.80;54.50;;;;;;6173707;28;20023;-68
2022/07/07 08:40:44;;;;;;;0.57;0.57;;;22.80;54.50;;;;;;6173916;28;20054;-69
2022/07/07 08:43:45;;;;;;;1.20;0.70;;;22.80;54.40;;;;;;6174126;28;20066;-68
2022/07/07 08:46:46;;;;;;;0.55;0.50;;;22.80;54.50;;;;;;6174245;28;20031;-69
2022/07/07 08:49:47;;;;;;;0.60;0.50;;;22.80;54.40;;;;;;6173771;28;20457;-69
2022/07/07 08:52:51;;;;;;;0.70;0.50;;;22.80;54.40;;;;;;6173580;28;20042;-69
2022/07/07 08:55:54;;;;;;;1.10;0.73;;;22.80;54.40;;;;;;6173917;28;20101;-69
2022/07/07 08:58:55;;;;;;;0.60;0.60;;;22.80;54.50;;;;;;6174011;28;20430;-68
2022/07/07 09:02:01;;;;;;;1.42;0.70;;;22.80;54.80;;;;;;6173983;28;20150;-68
2022/07/07 09:05:02;;;;;;;0.50;0.50;;;22.80;54.50;;;;;;6173701;28;20125;-68
2022/07/07 09:08:19;;;;;;;0.65;0.43;;;22.80;54.50;;;;;;6173652;28;20081;-67
2022/07/07 09:11:26;;;;;;;0.50;0.50;;;22.80;54.50;;;;;;6174195;28;20027;-69
2022/07/07 09:14:35;;;;;;;0.95;0.77;;;22.80;54.50;;;;;;6173039;28;20030;-69
2022/07/07 09:17:36;;;;;;;0.70;0.57;;;22.80;54.50;;;;;;6173449;28;20481;-68
2022/07/07 09:20:37;;;;;;;0.65;0.60;;;22.80;54.50;;;;;;6173898;28;20027;-68
2022/07/07 09:23:53;;;;;;;0.73;0.60;;;22.80;54.50;;;;;;6173451;28;20030;-68
2022/07/07 09:26:54;;;;;;;0.60;0.60;;;22.80;54.50;;;;;;6173442;28;20027;-68
2022/07/07 09:29:55;;;;;;;0.95;0.70;;;22.80;54.50;;;;;;6173412;28;20151;-69
2022/07/07 09:32:56;;;;;;;1.95;0.70;;;22.80;54.60;;;;;;6173182;28;20031;-70
2022/07/07 09:39:15;;;;;;;0.73;0.60;;;22.80;54.50;;;;;;6173394;28;20027;-68
2022/07/07 09:42:20;;;;;;;0.50;0.50;;;22.80;54.60;;;;;;6172733;28;20097;-69
2022/07/07 09:45:20;;;;;;;0.80;0.70;;;22.80;54.60;;;;;;6173513;28;20029;-68
2022/07/07 09:48:21;;;;;;;1.00;0.82;;;22.80;54.60;;;;;;6173027;28;20051;-68
2022/07/07 09:51:25;;;;;;;1.27;0.60;;;22.80;54.60;;;;;;6172831;28;20089;-68
2022/07/07 09:54:26;;;;;;;0.70;0.60;;;22.80;54.60;;;;;;6171890;28;20030;-69
2022/07/07 09:57:27;;;;;;;0.40;0.40;;;22.80;54.60;;;;;;6171909;28;20275;-68
2022/07/07 10:00:28;;;;;;;0.80;0.65;;;22.80;54.60;;;;;;6171966;28;20019;-69
2022/07/07 10:03:29;;;;;;;0.60;0.60;;;22.80;54.60;;;;;;6171683;28;20054;-69
2022/07/07 10:06:31;;;;;;;0.60;0.55;;;22.80;54.60;;;;;;6172803;28;20031;-69
2022/07/07 10:09:32;;;;;;;0.40;0.40;;;22.80;54.60;;;;;;6172463;28;20108;-69
2022/07/07 10:12:37;;;;;;;1.40;0.60;;;22.80;54.60;;;;;;6172861;28;20058;-69
2022/07/07 10:15:37;;;;;;;1.00;0.80;;;22.80;54.70;;;;;;6172455;28;20066;-69
2022/07/07 10:18:38;;;;;;;0.70;0.60;;;22.80;54.60;;;;;;6172677;28;20030;-69
2022/07/07 10:21:45;;;;;;;0.50;0.50;;;22.80;54.70;;;;;;6172735;28;20046;-69
2022/07/07 10:24:46;;;;;;;0.50;0.50;;;22.80;54.60;;;;;;6166674;28;20510;-69
2022/07/07 10:27:52;;;;;;;0.50;0.50;;;22.80;54.60;;;;;;6178025;28;20037;-69
2022/07/07 10:30:53;;;;;;;0.70;0.60;;;22.80;54.60;;;;;;6177152;28;20683;-68
2022/07/07 10:34:05;;;;;;;1.17;0.70;;;22.80;54.60;;;;;;6177241;28;20037;-68
2022/07/07 10:37:09;;;;;;;0.50;0.50;;;22.80;54.70;;;;;;6176036;28;20030;-67
2022/07/07 10:40:26;;;;;;;1.10;0.63;;;22.80;54.70;;;;;;6177107;28;20442;-67
2022/07/07 10:43:33;;;;;;;0.45;0.43;;;22.80;54.70;;;;;;6177324;28;20031;-69
2022/07/07 10:46:35;;;;;;;0.95;0.60;;;22.80;54.70;;;;;;6177049;28;20494;-68
2022/07/07 10:49:41;;;;;;;0.98;0.60;;;22.80;54.70;;;;;;6176663;28;20051;-67
2022/07/07 10:52:42;;;;;;;0.50;0.50;;;22.80;54.70;;;;;;6152980;29;20162;-69
2022/07/07 10:55:55;;;;;;;0.60;0.52;;;22.80;54.70;;;;;;6175162;28;20110;-69
2022/07/07 10:58:59;;;;;;;0.90;0.60;;;22.80;54.70;;;;;;6176401;28;20027;-69
2022/07/07 11:02:02;;;;;;;0.95;0.60;;;22.80;54.70;;;;;;6176998;28;20429;-68
2022/07/07 11:05:15;;;;;;;1.25;0.60;;;22.80;54.70;;;;;;6176171;28;20037;-69
2022/07/07 11:08:18;;;;;;;0.50;0.50;;;22.80;54.70;;;;;;6176538;28;20223;-68
2022/07/07 11:11:18;;;;;;;0.82;0.70;;;22.80;54.70;;;;;;6176292;28;20558;-69
2022/07/07 11:14:19;;;;;;;0.73;0.43;;;22.80;54.70;;;;;;6176240;28;20086;-69
2022/07/07 11:17:23;;;;;;;0.50;0.40;;;22.80;54.80;;;;;;6176651;28;20437;-69
2022/07/07 11:20:29;;;;;;;0.88;0.50;;;22.80;54.70;;;;;;6174660;28;20034;-68
2022/07/07 11:23:55;;;;;;;0.60;0.40;;;22.80;54.80;;;;;;6176140;28;20129;-69
2022/07/07 11:26:59;;;;;;;0.63;0.50;;;22.80;54.70;;;;;;6176249;28;20481;-69
2022/07/07 11:30:00;;;;;;;0.80;0.50;;;22.80;54.70;;;;;;6176120;28;20023;-69
2022/07/07 11:33:02;;;;;;;0.40;0.40;;;22.80;54.70;;;;;;6175755;28;20081;-69
2022/07/07 11:36:18;;;;;;;0.50;0.47;;;22.80;54.70;;;;;;6175620;28;20062;-69
2022/07/07 11:39:19;;;;;;;0.68;0.60;;;22.80;54.70;;;;;;6175267;28;20019;-68
2022/07/07 11:42:20;;;;;;;0.65;0.60;;;22.80;54.80;;;;;;6175674;28;20046;-69
2022/07/07 11:45:28;;;;;;;1.30;0.50;;;22.80;54.80;;;;;;6175622;28;20019;-69
2022/07/07 11:48:34;;;;;;;0.32;0.30;;;22.80;54.80;;;;;;6175448;28;20245;-69
2022/07/07 11:51:35;;;;;;;0.55;0.55;;;22.80;54.80;;;;;;6175509;28;20030;-69
2022/07/07 11:54:44;;;;;;;0.77;0.50;;;22.80;54.80;;;;;;6175572;28;20054;-69
2022/07/07 11:58:07;;;;;;;0.80;0.40;;;22.80;54.80;;;;;;6174865;28;20474;-69
2022/07/07 12:01:11;;;;;;;0.50;0.50;;;22.80;54.70;;;;;;6174977;28;20027;-69
2022/07/07 12:04:20;;;;;;;0.65;0.50;;;22.80;54.80;;;;;;6175130;28;20031;-68
2022/07/07 12:07:21;;;;;;;0.60;0.57;;;22.80;54.70;;;;;;6175014;28;20438;-69
2022/07/07 12:10:29;;;;;;;1.23;0.55;;;22.80;54.80;;;;;;6175281;28;20152;-67
2022/07/07 12:13:30;;;;;;;0.40;0.40;;;22.80;54.70;;;;;;6175035;28;20039;-69
2022/07/07 12:16:41;;;;;;;0.75;0.60;;;22.80;54.70;;;;;;6174935;28;20390;-69
2022/07/07 12:19:49;;;;;;;0.60;0.60;;;22.80;54.70;;;;;;6174862;28;20022;-68
2022/07/07 12:22:58;;;;;;;0.40;0.40;;;22.80;54.70;;;;;;6174203;28;20501;-69
2022/07/07 12:26:13;;;;;;;0.50;0.40;;;22.80;54.80;;;;;;6174640;28;20027;-69
2022/07/07 12:29:18;;;;;;;0.90;0.60;;;22.80;54.80;;;;;;6174628;28;20029;-69
2022/07/07 12:32:23;;;;;;;0.50;0.50;;;22.80;54.70;;;;;;6173730;28;20713;-69
2022/07/07 12:35:27;;;;;;;0.50;0.50;;;22.80;54.80;;;;;;6174264;28;20727;-68
2022/07/07 12:38:48;;;;;;;0.38;0.38;;;22.80;54.80;;;;;;6174569;28;20110;-69
2022/07/07 12:41:55;;;;;;;0.32;0.32;;;22.80;54.80;;;;;;6174075;28;20058;-69
2022/07/07 12:45:09;;;;;;;0.60;0.50;;;22.80;54.80;;;;;;6173757;28;20482;-68
2022/07/07 12:48:18;;;;;;;0.50;0.50;;;22.80;54.80;;;;;;6173791;28;20398;-68
2022/07/07 12:51:25;;;;;;;0.50;0.43;;;22.80;54.80;;;;;;6173157;28;20031;-68
2022/07/07 12:54:27;;;;;;;0.60;0.60;;;22.80;55.40;;;;;;6173995;28;20026;-69
2022/07/07 12:57:28;;;;;;;0.50;0.50;;;22.80;54.80;;;;;;6174142;28;20106;-68
2022/07/07 13:00:29;;;;;;;0.57;0.50;;;22.80;54.90;;;;;;6173825;28;20461;-69
2022/07/07 13:03:30;;;;;;;0.57;0.50;;;22.80;54.80;;;;;;6173663;28;20042;-69
2022/07/07 13:06:31;;;;;;;0.60;0.57;;;22.80;54.90;;;;;;6173340;28;20029;-68
2022/07/07 13:09:32;;;;;;;0.65;0.50;;;22.80;54.80;;;;;;6173014;28;20035;-69
2022/07/07 13:12:32;;;;;;;0.68;0.55;;;22.80;54.70;;;;;;6172930;28;20054;-69
2022/07/07 13:15:33;;;;;;;0.35;0.35;;;22.80;54.80;;;;;;6173551;28;20027;-69
2022/07/07 13:18:35;;;;;;;0.50;0.45;;;22.80;54.80;;;;;;6173522;28;20022;-69
2022/07/07 13:21:36;;;;;;;0.70;0.40;;;22.80;54.70;;;;;;6173421;28;20110;-68
2022/07/07 13:24:37;;;;;;;0.88;0.50;;;22.80;54.70;;;;;;6172921;28;20437;-68
2022/07/07 13:27:38;;;;;;;0.60;0.43;;;22.80;54.70;;;;;;6173107;28;20080;-69
2022/07/07 13:30:38;;;;;;;0.45;0.43;;;22.80;54.70;;;;;;6173245;28;20031;-69
2022/07/07 13:33:39;;;;;;;0.40;0.40;;;22.80;54.80;;;;;;6172847;28;20101;-69
2022/07/07 13:36:40;;;;;;;0.40;0.40;;;22.80;54.80;;;;;;6173481;28;20059;-68
2022/07/07 13:39:40;;;;;;;0.40;0.40;;;22.80;54.90;;;;;;6172804;28;20025;-69
2022/07/07 13:42:41;;;;;;;0.55;0.40;;;22.80;55.30;;;;;;6173220;28;20062;-69
2022/07/07 13:45:42;;;;;;;1.05;0.50;;;22.80;55.30;;;;;;6173042;28;20078;-68
2022/07/07 13:48:43;;;;;;;0.90;0.60;;;22.80;55.30;;;;;;6172659;28;20121;-69
2022/07/07 13:51:43;;;;;;;0.47;0.40;;;22.80;56.00;;;;;;6173381;28;20041;-69
2022/07/07 13:54:44;;;;;;;0.52;0.45;;;22.80;55.10;;;;;;6173407;28;20019;-69
2022/07/07 13:57:45;;;;;;;0.73;0.60;;;22.80;55.00;;;;;;6173051;28;20069;-69
2022/07/07 14:00:46;;;;;;;0.50;0.50;;;22.80;54.90;;;;;;6173706;28;20058;-68
2022/07/07 14:03:47;;;;;;;0.50;0.50;;;22.80;55.10;;;;;;6177896;28;20031;-69
2022/07/07 14:06:47;;;;;;;0.40;0.40;;;22.80;55.30;;;;;;6178149;28;20114;-69
2022/07/07 14:09:48;;;;;;;0.30;0.30;;;22.80;55.20;;;;;;6177905;28;20030;-69
2022/07/07 14:12:49;;;;;;;0.47;0.40;;;22.80;55.20;;;;;;6177812;28;20040;-69
2022/07/07 14:15:50;;;;;;;0.40;0.40;;;22.80;55.10;;;;;;6177429;28;20052;-68
2022/07/07 14:18:50;;;;;;;0.40;0.32;;;22.80;55.10;;;;;;6177687;28;20019;-69
2022/07/07 14:21:51;;;;;;;0.30;0.30;;;22.80;55.00;;;;;;6177133;28;20058;-68
2022/07/07 14:24:52;;;;;;;0.38;0.38;;;22.80;55.00;;;;;;6167370;28;20060;-69
2022/07/07 14:27:53;;;;;;;0.32;0.32;;;22.80;54.90;;;;;;6173314;28;20066;-69
2022/07/07 14:30:53;;;;;;;0.73;0.40;;;22.80;54.80;;;;;;6176905;28;20057;-68
2022/07/07 14:33:54;;;;;;;0.40;0.40;;;22.80;54.80;;;;;;6177368;28;20034;-68
2022/07/07 14:36:54;;;;;;;0.60;0.50;;;22.80;54.80;;;;;;6177183;28;20023;-69
2022/07/07 14:39:55;;;;;;;0.40;0.40;;;22.80;54.80;;;;;;6176790;28;20026;-69
2022/07/07 14:42:56;;;;;;;0.40;0.40;;;22.80;54.90;;;;;;6177394;28;20034;-68
2022/07/07 14:45:57;;;;;;;0.40;0.40;;;22.80;54.90;;;;;;6176982;28;20019;-69
2022/07/07 14:48:58;;;;;;;0.40;0.40;;;22.80;54.80;;;;;;6176656;28;20059;-68
2022/07/07 14:51:59;;;;;;;0.60;0.30;;;22.80;54.80;;;;;;6177337;28;20026;-69
2022/07/07 14:55:00;;;;;;;0.40;0.40;;;22.80;54.80;;;;;;6176932;28;20031;-69
2022/07/07 14:58:00;;;;;;;0.50;0.50;;;22.80;54.80;;;;;;6177175;28;20484;-68
2022/07/07 15:01:01;;;;;;;0.40;0.40;;;22.80;54.80;;;;;;6176829;28;20038;-68
2022/07/07 15:04:02;;;;;;;0.40;0.40;;;22.80;54.80;;;;;;6176480;28;20106;-69
2022/07/07 15:07:02;;;;;;;0.50;0.40;;;22.80;54.80;;;;;;6176649;28;20031;-66
2022/07/07 15:10:04;;;;;;;0.55;0.52;;;22.80;54.90;;;;;;6176658;28;20027;-67
2022/07/07 15:13:05;;;;;;;0.40;0.40;;;22.80;54.90;;;;;;6175671;28;20509;-68
2022/07/07 15:16:06;;;;;;;0.40;0.40;;;22.80;54.90;;;;;;6177205;28;20126;-68
2022/07/07 15:19:07;;;;;;;0.45;0.45;;;22.80;54.90;;;;;;6176430;28;20029;-69
2022/07/07 15:22:09;;;;;;;0.40;0.40;;;22.80;54.90;;;;;;6176335;28;20023;-68
2022/07/07 15:25:12;;;;;;;0.50;0.47;;;22.80;54.90;;;;;;6176408;28;20053;-69
2022/07/07 15:28:13;;;;;;;0.40;0.40;;;22.80;54.90;;;;;;6176371;28;20038;-69
2022/07/07 15:31:16;;;;;;;0.40;0.40;;;22.80;54.90;;;;;;6175477;28;20035;-69
2022/07/07 15:34:16;;;;;;;0.40;0.40;;;22.80;54.80;;;;;;6176112;28;20023;-69
2022/07/07 15:37:17;;;;;;;0.35;0.32;;;22.80;54.90;;;;;;6175898;28;20386;-68
2022/07/07 15:40:18;;;;;;;0.68;0.50;;;22.80;54.90;;;;;;6176514;28;20524;-69
2022/07/07 15:43:19;;;;;;;0.50;0.40;;;22.80;54.90;;;;;;6175419;28;20030;-69
2022/07/07 15:46:19;;;;;;;0.30;0.30;;;22.80;54.90;;;;;;6176059;28;20085;-69
2022/07/07 15:49:20;;;;;;;0.30;0.30;;;22.80;54.90;;;;;;6175418;28;20141;-69
2022/07/07 15:52:21;;;;;;;0.47;0.40;;;22.80;54.90;;;;;;6175797;28;20026;-68
2022/07/07 15:55:22;;;;;;;0.40;0.40;;;22.80;54.90;;;;;;6174972;28;20033;-69
2022/07/07 15:58:22;;;;;;;0.80;0.50;;;22.80;54.90;;;;;;6176189;28;20054;-68